sensor_id;sensor_type;location;lat;lon;timestamp;P1;durP1;ratioP1;P2;durP2;ratioP2
46563;SDS011;32291;52.010;4.446;2023-02-28T00:00:30;4.18;;;3.15;;
46563;SDS011;32291;52.010;4.446;2023-02-28T00:01:33;5.10;;;3.33;;
46563;SDS011;32291;52.010;4.446;2023-02-28T00:02:35;3.65;;;3.28;;
46563;SDS011;32291;52.010;4.446;2023-02-28T00:03:38;3.47;;;3.08;;
46563;SDS011;32291;52.010;4.446;2023-02-28T00:04:40;5.45;;;3.10;;
46563;SDS011;32291;52.010;4.446;2023-02-28T00:05:42;5.32;;;3.60;;
46563;SDS011;32291;52.010;4.446;2023-02-28T00:06:44;4.30;;;3.30;;
46563;SDS011;32291;52.010;4.446;2023-02-28T00:07:46;6.60;;;3.40;;
46563;SDS011;32291;52.010;4.446;2023-02-28T00:08:50;4.13;;;3.70;;
46563;SDS011;32291;52.010;4.446;2023-02-28T00:09:52;5.18;;;4.03;;
46563;SDS011;32291;52.010;4.446;2023-02-28T00:10:54;6.00;;;3.55;;
46563;SDS011;32291;52.010;4.446;2023-02-28T00:11:56;5.07;;;4.03;;
46563;SDS011;32291;52.010;4.446;2023-02-28T00:13:00;3.92;;;3.10;;
46563;SDS011;32291;52.010;4.446;2023-02-28T00:14:06;4.50;;;3.60;;
46563;SDS011;32291;52.010;4.446;2023-02-28T00:15:09;3.83;;;3.35;;
46563;SDS011;32291;52.010;4.446;2023-02-28T00:16:16;6.40;;;3.80;;
46563;SDS011;32291;52.010;4.446;2023-02-28T00:17:21;4.75;;;3.15;;
46563;SDS011;32291;52.010;4.446;2023-02-28T00:18:23;6.28;;;3.50;;
46563;SDS011;32291;52.010;4.446;2023-02-28T00:19:25;4.75;;;3.60;;
46563;SDS011;32291;52.010;4.446;2023-02-28T00:20:27;5.05;;;3.60;;
46563;SDS011;32291;52.010;4.446;2023-02-28T00:21:29;3.53;;;3.17;;
46563;SDS011;32291;52.010;4.446;2023-02-28T00:22:30;5.07;;;3.50;;
46563;SDS011;32291;52.010;4.446;2023-02-28T00:23:33;6.20;;;3.38;;
46563;SDS011;32291;52.010;4.446;2023-02-28T00:24:34;4.78;;;3.70;;
46563;SDS011;32291;52.010;4.446;2023-02-28T00:25:36;4.80;;;3.70;;
46563;SDS011;32291;52.010;4.446;2023-02-28T00:26:38;3.80;;;3.40;;
46563;SDS011;32291;52.010;4.446;2023-02-28T00:27:41;5.15;;;3.05;;
46563;SDS011;32291;52.010;4.446;2023-02-28T00:28:44;3.28;;;2.83;;
46563;SDS011;32291;52.010;4.446;2023-02-28T00:29:46;5.03;;;3.30;;
46563;SDS011;32291;52.010;4.446;2023-02-28T00:30:48;5.97;;;3.15;;
46563;SDS011;32291;52.010;4.446;2023-02-28T00:31:50;4.13;;;3.20;;
46563;SDS011;32291;52.010;4.446;2023-02-28T00:32:51;3.80;;;3.47;;
46563;SDS011;32291;52.010;4.446;2023-02-28T00:33:53;3.95;;;3.58;;
46563;SDS011;32291;52.010;4.446;2023-02-28T00:34:54;4.30;;;3.50;;
46563;SDS011;32291;52.010;4.446;2023-02-28T00:36:06;5.60;;;2.97;;
46563;SDS011;32291;52.010;4.446;2023-02-28T00:37:11;4.57;;;2.90;;
46563;SDS011;32291;52.010;4.446;2023-02-28T00:38:13;4.18;;;3.30;;
46563;SDS011;32291;52.010;4.446;2023-02-28T00:39:16;7.70;;;3.25;;
46563;SDS011;32291;52.010;4.446;2023-02-28T00:40:18;4.38;;;3.30;;
46563;SDS011;32291;52.010;4.446;2023-02-28T00:41:20;4.07;;;3.67;;
46563;SDS011;32291;52.010;4.446;2023-02-28T00:42:22;6.95;;;2.83;;
46563;SDS011;32291;52.010;4.446;2023-02-28T00:43:25;4.10;;;3.22;;
46563;SDS011;32291;52.010;4.446;2023-02-28T00:44:26;6.13;;;3.35;;
46563;SDS011;32291;52.010;4.446;2023-02-28T00:45:29;4.60;;;2.92;;
46563;SDS011;32291;52.010;4.446;2023-02-28T00:46:31;5.22;;;2.90;;
46563;SDS011;32291;52.010;4.446;2023-02-28T00:47:33;3.70;;;2.97;;
46563;SDS011;32291;52.010;4.446;2023-02-28T00:48:35;4.95;;;3.33;;
46563;SDS011;32291;52.010;4.446;2023-02-28T00:49:37;4.13;;;3.00;;
46563;SDS011;32291;52.010;4.446;2023-02-28T00:50:38;6.07;;;3.22;;
46563;SDS011;32291;52.010;4.446;2023-02-28T00:51:40;5.80;;;3.30;;
46563;SDS011;32291;52.010;4.446;2023-02-28T00:52:42;6.03;;;2.90;;
46563;SDS011;32291;52.010;4.446;2023-02-28T00:53:44;4.63;;;3.80;;
46563;SDS011;32291;52.010;4.446;2023-02-28T00:54:46;4.78;;;2.97;;
46563;SDS011;32291;52.010;4.446;2023-02-28T00:55:49;6.13;;;3.17;;
46563;SDS011;32291;52.010;4.446;2023-02-28T00:56:51;3.63;;;2.78;;
46563;SDS011;32291;52.010;4.446;2023-02-28T00:57:53;6.68;;;3.13;;
46563;SDS011;32291;52.010;4.446;2023-02-28T00:58:55;4.53;;;3.15;;
46563;SDS011;32291;52.010;4.446;2023-02-28T00:59:56;3.20;;;2.90;;
46563;SDS011;32291;52.010;4.446;2023-02-28T01:00:59;5.35;;;2.92;;
46563;SDS011;32291;52.010;4.446;2023-02-28T01:02:01;5.07;;;3.25;;
46563;SDS011;32291;52.010;4.446;2023-02-28T01:03:02;5.13;;;3.00;;
46563;SDS011;32291;52.010;4.446;2023-02-28T01:04:04;5.18;;;3.20;;
46563;SDS011;32291;52.010;4.446;2023-02-28T01:05:06;4.18;;;3.05;;
46563;SDS011;32291;52.010;4.446;2023-02-28T01:06:09;4.65;;;3.05;;
46563;SDS011;32291;52.010;4.446;2023-02-28T01:07:10;4.25;;;3.25;;
46563;SDS011;32291;52.010;4.446;2023-02-28T01:08:12;5.03;;;2.95;;
46563;SDS011;32291;52.010;4.446;2023-02-28T01:09:15;5.22;;;3.05;;
46563;SDS011;32291;52.010;4.446;2023-02-28T01:10:17;5.32;;;2.75;;
46563;SDS011;32291;52.010;4.446;2023-02-28T01:11:19;4.95;;;3.05;;
46563;SDS011;32291;52.010;4.446;2023-02-28T01:12:20;4.65;;;3.42;;
46563;SDS011;32291;52.010;4.446;2023-02-28T01:13:22;6.20;;;2.78;;
46563;SDS011;32291;52.010;4.446;2023-02-28T01:14:25;5.32;;;3.08;;
46563;SDS011;32291;52.010;4.446;2023-02-28T01:15:27;4.80;;;3.10;;
46563;SDS011;32291;52.010;4.446;2023-02-28T01:16:29;4.95;;;3.33;;
46563;SDS011;32291;52.010;4.446;2023-02-28T01:17:31;3.03;;;2.63;;
46563;SDS011;32291;52.010;4.446;2023-02-28T01:18:33;6.38;;;3.20;;
46563;SDS011;32291;52.010;4.446;2023-02-28T01:19:35;5.30;;;3.17;;
46563;SDS011;32291;52.010;4.446;2023-02-28T01:20:37;4.05;;;2.70;;
46563;SDS011;32291;52.010;4.446;2023-02-28T01:21:40;5.88;;;3.45;;
46563;SDS011;32291;52.010;4.446;2023-02-28T01:22:41;5.90;;;3.17;;
46563;SDS011;32291;52.010;4.446;2023-02-28T01:23:43;5.78;;;3.05;;
46563;SDS011;32291;52.010;4.446;2023-02-28T01:24:45;4.35;;;3.08;;
46563;SDS011;32291;52.010;4.446;2023-02-28T01:25:46;5.80;;;2.80;;
46563;SDS011;32291;52.010;4.446;2023-02-28T01:26:48;4.28;;;2.80;;
46563;SDS011;32291;52.010;4.446;2023-02-28T01:27:50;2.92;;;2.72;;
46563;SDS011;32291;52.010;4.446;2023-02-28T01:28:52;5.07;;;3.08;;
46563;SDS011;32291;52.010;4.446;2023-02-28T01:29:54;5.13;;;3.05;;
46563;SDS011;32291;52.010;4.446;2023-02-28T01:30:55;4.82;;;3.13;;
46563;SDS011;32291;52.010;4.446;2023-02-28T01:31:57;3.53;;;2.88;;
46563;SDS011;32291;52.010;4.446;2023-02-28T01:33:00;6.47;;;2.90;;
46563;SDS011;32291;52.010;4.446;2023-02-28T01:34:02;3.60;;;3.00;;
46563;SDS011;32291;52.010;4.446;2023-02-28T01:35:04;4.50;;;2.88;;
46563;SDS011;32291;52.010;4.446;2023-02-28T01:36:09;3.85;;;2.85;;
46563;SDS011;32291;52.010;4.446;2023-02-28T01:37:22;7.40;;;3.08;;
46563;SDS011;32291;52.010;4.446;2023-02-28T01:38:25;6.05;;;3.10;;
46563;SDS011;32291;52.010;4.446;2023-02-28T01:39:27;4.13;;;2.53;;
46563;SDS011;32291;52.010;4.446;2023-02-28T01:40:29;6.50;;;3.03;;
46563;SDS011;32291;52.010;4.446;2023-02-28T01:41:32;5.88;;;3.05;;
46563;SDS011;32291;52.010;4.446;2023-02-28T01:42:35;5.25;;;3.97;;
46563;SDS011;32291;52.010;4.446;2023-02-28T01:46:00;3.50;;;2.75;;
46563;SDS011;32291;52.010;4.446;2023-02-28T01:47:02;4.32;;;3.17;;
46563;SDS011;32291;52.010;4.446;2023-02-28T01:48:05;5.13;;;3.10;;
46563;SDS011;32291;52.010;4.446;2023-02-28T01:49:11;4.18;;;3.83;;
46563;SDS011;32291;52.010;4.446;2023-02-28T01:50:21;5.43;;;3.65;;
46563;SDS011;32291;52.010;4.446;2023-02-28T01:51:32;5.07;;;3.35;;
46563;SDS011;32291;52.010;4.446;2023-02-28T01:52:40;5.28;;;3.53;;
46563;SDS011;32291;52.010;4.446;2023-02-28T01:53:46;6.50;;;3.42;;
46563;SDS011;32291;52.010;4.446;2023-02-28T01:54:54;4.57;;;3.40;;
46563;SDS011;32291;52.010;4.446;2023-02-28T01:56:00;4.53;;;3.67;;
46563;SDS011;32291;52.010;4.446;2023-02-28T01:57:10;7.45;;;3.90;;
46563;SDS011;32291;52.010;4.446;2023-02-28T01:58:18;5.45;;;3.67;;
46563;SDS011;32291;52.010;4.446;2023-02-28T01:59:26;4.97;;;3.78;;
46563;SDS011;32291;52.010;4.446;2023-02-28T02:00:36;5.95;;;3.70;;
46563;SDS011;32291;52.010;4.446;2023-02-28T02:01:39;6.43;;;3.88;;
46563;SDS011;32291;52.010;4.446;2023-02-28T02:02:45;6.05;;;4.25;;
46563;SDS011;32291;52.010;4.446;2023-02-28T02:03:52;9.23;;;3.60;;
46563;SDS011;32291;52.010;4.446;2023-02-28T02:05:08;4.32;;;3.80;;
46563;SDS011;32291;52.010;4.446;2023-02-28T02:06:15;6.55;;;4.25;;
46563;SDS011;32291;52.010;4.446;2023-02-28T02:07:17;7.80;;;3.95;;
46563;SDS011;32291;52.010;4.446;2023-02-28T02:08:21;6.10;;;3.75;;
46563;SDS011;32291;52.010;4.446;2023-02-28T02:09:27;4.35;;;3.55;;
46563;SDS011;32291;52.010;4.446;2023-02-28T02:10:36;5.57;;;3.72;;
46563;SDS011;32291;52.010;4.446;2023-02-28T02:11:44;4.00;;;3.47;;
46563;SDS011;32291;52.010;4.446;2023-02-28T02:15:31;4.90;;;3.97;;
46563;SDS011;32291;52.010;4.446;2023-02-28T02:18:34;4.70;;;4.05;;
46563;SDS011;32291;52.010;4.446;2023-02-28T02:21:45;6.65;;;4.18;;
46563;SDS011;32291;52.010;4.446;2023-02-28T02:29:21;7.05;;;4.65;;
46563;SDS011;32291;52.010;4.446;2023-02-28T02:35:27;6.40;;;4.45;;
46563;SDS011;32291;52.010;4.446;2023-02-28T02:36:51;6.50;;;5.38;;
46563;SDS011;32291;52.010;4.446;2023-02-28T02:39:22;6.43;;;4.57;;
46563;SDS011;32291;52.010;4.446;2023-02-28T02:42:37;5.85;;;4.65;;
46563;SDS011;32291;52.010;4.446;2023-02-28T02:44:02;4.60;;;4.20;;
46563;SDS011;32291;52.010;4.446;2023-02-28T02:45:34;5.63;;;4.28;;
46563;SDS011;32291;52.010;4.446;2023-02-28T02:46:44;4.75;;;4.28;;
46563;SDS011;32291;52.010;4.446;2023-02-28T02:47:48;7.00;;;3.88;;
46563;SDS011;32291;52.010;4.446;2023-02-28T02:48:52;6.30;;;4.30;;
46563;SDS011;32291;52.010;4.446;2023-02-28T02:49:59;6.07;;;4.80;;
46563;SDS011;32291;52.010;4.446;2023-02-28T02:51:13;7.38;;;4.15;;
46563;SDS011;32291;52.010;4.446;2023-02-28T02:52:23;5.80;;;4.10;;
46563;SDS011;32291;52.010;4.446;2023-02-28T02:53:35;5.68;;;4.75;;
46563;SDS011;32291;52.010;4.446;2023-02-28T02:54:45;5.32;;;4.57;;
46563;SDS011;32291;52.010;4.446;2023-02-28T02:55:51;8.20;;;4.97;;
46563;SDS011;32291;52.010;4.446;2023-02-28T02:56:56;8.40;;;5.40;;
46563;SDS011;32291;52.010;4.446;2023-02-28T02:58:13;7.28;;;4.25;;
46563;SDS011;32291;52.010;4.446;2023-02-28T02:59:20;6.22;;;4.32;;
46563;SDS011;32291;52.010;4.446;2023-02-28T03:00:26;5.90;;;4.72;;
46563;SDS011;32291;52.010;4.446;2023-02-28T03:01:38;6.88;;;4.20;;
46563;SDS011;32291;52.010;4.446;2023-02-28T03:02:42;6.10;;;5.03;;
46563;SDS011;32291;52.010;4.446;2023-02-28T03:03:46;7.72;;;4.55;;
46563;SDS011;32291;52.010;4.446;2023-02-28T03:04:51;8.32;;;4.10;;
46563;SDS011;32291;52.010;4.446;2023-02-28T03:06:02;5.65;;;4.07;;
46563;SDS011;32291;52.010;4.446;2023-02-28T03:07:07;5.32;;;3.78;;
46563;SDS011;32291;52.010;4.446;2023-02-28T03:08:09;6.32;;;4.25;;
46563;SDS011;32291;52.010;4.446;2023-02-28T03:09:11;7.50;;;4.55;;
46563;SDS011;32291;52.010;4.446;2023-02-28T03:10:33;6.47;;;4.30;;
46563;SDS011;32291;52.010;4.446;2023-02-28T03:11:37;5.78;;;4.43;;
46563;SDS011;32291;52.010;4.446;2023-02-28T03:12:49;7.28;;;3.90;;
46563;SDS011;32291;52.010;4.446;2023-02-28T03:23:53;4.97;;;3.97;;
46563;SDS011;32291;52.010;4.446;2023-02-28T03:25:29;6.22;;;4.20;;
46563;SDS011;32291;52.010;4.446;2023-02-28T03:27:10;6.85;;;4.65;;
46563;SDS011;32291;52.010;4.446;2023-02-28T03:31:37;5.40;;;4.40;;
46563;SDS011;32291;52.010;4.446;2023-02-28T03:32:55;9.30;;;4.68;;
46563;SDS011;32291;52.010;4.446;2023-02-28T03:34:10;8.18;;;4.80;;
46563;SDS011;32291;52.010;4.446;2023-02-28T03:35:23;8.20;;;4.55;;
46563;SDS011;32291;52.010;4.446;2023-02-28T03:36:38;7.70;;;4.57;;
46563;SDS011;32291;52.010;4.446;2023-02-28T03:37:55;5.70;;;5.18;;
46563;SDS011;32291;52.010;4.446;2023-02-28T03:39:08;5.88;;;5.18;;
46563;SDS011;32291;52.010;4.446;2023-02-28T03:40:23;5.45;;;4.72;;
46563;SDS011;32291;52.010;4.446;2023-02-28T03:41:38;10.63;;;5.07;;
46563;SDS011;32291;52.010;4.446;2023-02-28T03:42:52;7.35;;;4.55;;
46563;SDS011;32291;52.010;4.446;2023-02-28T03:44:04;6.30;;;4.88;;
46563;SDS011;32291;52.010;4.446;2023-02-28T03:45:16;8.50;;;4.93;;
46563;SDS011;32291;52.010;4.446;2023-02-28T03:46:25;7.25;;;4.85;;
46563;SDS011;32291;52.010;4.446;2023-02-28T03:47:33;6.18;;;4.97;;
46563;SDS011;32291;52.010;4.446;2023-02-28T03:49:02;7.03;;;5.47;;
46563;SDS011;32291;52.010;4.446;2023-02-28T03:50:30;6.28;;;4.82;;
46563;SDS011;32291;52.010;4.446;2023-02-28T03:51:45;7.85;;;5.18;;
46563;SDS011;32291;52.010;4.446;2023-02-28T03:52:52;7.68;;;5.75;;
46563;SDS011;32291;52.010;4.446;2023-02-28T03:54:07;6.47;;;4.90;;
46563;SDS011;32291;52.010;4.446;2023-02-28T03:55:45;7.88;;;5.10;;
46563;SDS011;32291;52.010;4.446;2023-02-28T03:56:57;8.57;;;5.15;;
46563;SDS011;32291;52.010;4.446;2023-02-28T03:59:52;7.30;;;5.68;;
46563;SDS011;32291;52.010;4.446;2023-02-28T04:01:07;7.15;;;5.07;;
46563;SDS011;32291;52.010;4.446;2023-02-28T04:02:16;6.75;;;5.45;;
46563;SDS011;32291;52.010;4.446;2023-02-28T04:03:19;8.35;;;5.68;;
46563;SDS011;32291;52.010;4.446;2023-02-28T04:04:20;8.88;;;5.97;;
46563;SDS011;32291;52.010;4.446;2023-02-28T04:05:23;7.15;;;5.68;;
46563;SDS011;32291;52.010;4.446;2023-02-28T04:06:26;7.18;;;5.35;;
46563;SDS011;32291;52.010;4.446;2023-02-28T04:07:31;6.65;;;5.53;;
46563;SDS011;32291;52.010;4.446;2023-02-28T04:08:33;6.32;;;5.72;;
46563;SDS011;32291;52.010;4.446;2023-02-28T04:09:35;6.18;;;5.55;;
46563;SDS011;32291;52.010;4.446;2023-02-28T04:10:37;8.63;;;5.90;;
46563;SDS011;32291;52.010;4.446;2023-02-28T04:11:40;8.52;;;6.55;;
46563;SDS011;32291;52.010;4.446;2023-02-28T04:12:47;6.82;;;6.05;;
46563;SDS011;32291;52.010;4.446;2023-02-28T04:13:48;8.00;;;6.07;;
46563;SDS011;32291;52.010;4.446;2023-02-28T04:14:50;8.88;;;5.82;;
46563;SDS011;32291;52.010;4.446;2023-02-28T04:15:52;7.68;;;5.53;;
46563;SDS011;32291;52.010;4.446;2023-02-28T04:16:54;7.88;;;5.85;;
46563;SDS011;32291;52.010;4.446;2023-02-28T04:17:56;8.80;;;5.65;;
46563;SDS011;32291;52.010;4.446;2023-02-28T04:18:58;6.43;;;5.72;;
46563;SDS011;32291;52.010;4.446;2023-02-28T04:20:03;12.50;;;7.57;;
46563;SDS011;32291;52.010;4.446;2023-02-28T04:21:10;8.27;;;6.93;;
46563;SDS011;32291;52.010;4.446;2023-02-28T04:22:12;8.95;;;6.90;;
46563;SDS011;32291;52.010;4.446;2023-02-28T04:23:14;6.78;;;5.95;;
46563;SDS011;32291;52.010;4.446;2023-02-28T04:24:21;7.25;;;6.43;;
46563;SDS011;32291;52.010;4.446;2023-02-28T04:25:26;8.98;;;6.60;;
46563;SDS011;32291;52.010;4.446;2023-02-28T04:26:31;9.68;;;6.43;;
46563;SDS011;32291;52.010;4.446;2023-02-28T04:27:36;7.13;;;6.32;;
46563;SDS011;32291;52.010;4.446;2023-02-28T04:28:37;8.68;;;6.15;;
46563;SDS011;32291;52.010;4.446;2023-02-28T04:29:39;8.93;;;6.65;;
46563;SDS011;32291;52.010;4.446;2023-02-28T04:30:45;8.27;;;6.38;;
46563;SDS011;32291;52.010;4.446;2023-02-28T04:31:47;7.65;;;6.65;;
46563;SDS011;32291;52.010;4.446;2023-02-28T04:32:49;6.50;;;5.90;;
46563;SDS011;32291;52.010;4.446;2023-02-28T04:33:51;8.55;;;7.07;;
46563;SDS011;32291;52.010;4.446;2023-02-28T04:34:53;8.55;;;6.00;;
46563;SDS011;32291;52.010;4.446;2023-02-28T04:36:02;6.90;;;6.30;;
46563;SDS011;32291;52.010;4.446;2023-02-28T04:37:09;10.60;;;6.47;;
46563;SDS011;32291;52.010;4.446;2023-02-28T04:38:10;9.70;;;7.03;;
46563;SDS011;32291;52.010;4.446;2023-02-28T04:39:12;8.57;;;6.82;;
46563;SDS011;32291;52.010;4.446;2023-02-28T04:40:14;10.75;;;6.80;;
46563;SDS011;32291;52.010;4.446;2023-02-28T04:41:16;13.55;;;7.20;;
46563;SDS011;32291;52.010;4.446;2023-02-28T04:42:20;9.35;;;7.22;;
46563;SDS011;32291;52.010;4.446;2023-02-28T04:43:22;9.30;;;7.15;;
46563;SDS011;32291;52.010;4.446;2023-02-28T04:44:24;8.05;;;6.60;;
46563;SDS011;32291;52.010;4.446;2023-02-28T04:45:26;9.27;;;7.47;;
46563;SDS011;32291;52.010;4.446;2023-02-28T04:46:31;7.97;;;6.78;;
46563;SDS011;32291;52.010;4.446;2023-02-28T04:47:33;6.28;;;5.78;;
46563;SDS011;32291;52.010;4.446;2023-02-28T04:48:35;7.63;;;6.40;;
46563;SDS011;32291;52.010;4.446;2023-02-28T04:49:38;7.68;;;6.80;;
46563;SDS011;32291;52.010;4.446;2023-02-28T04:50:42;10.55;;;7.07;;
46563;SDS011;32291;52.010;4.446;2023-02-28T04:51:44;7.30;;;6.38;;
46563;SDS011;32291;52.010;4.446;2023-02-28T04:52:46;8.68;;;7.22;;
46563;SDS011;32291;52.010;4.446;2023-02-28T04:53:48;9.13;;;7.07;;
46563;SDS011;32291;52.010;4.446;2023-02-28T04:54:50;8.27;;;7.47;;
46563;SDS011;32291;52.010;4.446;2023-02-28T04:55:52;8.95;;;7.32;;
46563;SDS011;32291;52.010;4.446;2023-02-28T04:56:54;12.02;;;8.00;;
46563;SDS011;32291;52.010;4.446;2023-02-28T04:57:56;10.52;;;7.82;;
46563;SDS011;32291;52.010;4.446;2023-02-28T04:58:58;11.20;;;9.38;;
46563;SDS011;32291;52.010;4.446;2023-02-28T05:00:00;14.38;;;9.95;;
46563;SDS011;32291;52.010;4.446;2023-02-28T05:01:02;12.65;;;9.65;;
46563;SDS011;32291;52.010;4.446;2023-02-28T05:02:13;12.50;;;9.48;;
46563;SDS011;32291;52.010;4.446;2023-02-28T05:03:15;12.75;;;9.88;;
46563;SDS011;32291;52.010;4.446;2023-02-28T05:04:17;14.00;;;9.90;;
46563;SDS011;32291;52.010;4.446;2023-02-28T05:05:19;15.85;;;10.40;;
46563;SDS011;32291;52.010;4.446;2023-02-28T05:06:21;13.25;;;9.07;;
46563;SDS011;32291;52.010;4.446;2023-02-28T05:07:26;12.65;;;9.40;;
46563;SDS011;32291;52.010;4.446;2023-02-28T05:08:28;13.15;;;10.23;;
46563;SDS011;32291;52.010;4.446;2023-02-28T05:09:31;11.55;;;8.90;;
46563;SDS011;32291;52.010;4.446;2023-02-28T05:10:34;10.63;;;8.23;;
46563;SDS011;32291;52.010;4.446;2023-02-28T05:11:36;11.32;;;8.23;;
46563;SDS011;32291;52.010;4.446;2023-02-28T05:12:39;14.52;;;8.98;;
46563;SDS011;32291;52.010;4.446;2023-02-28T05:13:41;10.48;;;8.77;;
46563;SDS011;32291;52.010;4.446;2023-02-28T05:14:43;11.50;;;9.02;;
46563;SDS011;32291;52.010;4.446;2023-02-28T05:15:45;8.98;;;8.07;;
46563;SDS011;32291;52.010;4.446;2023-02-28T05:16:47;9.10;;;7.43;;
46563;SDS011;32291;52.010;4.446;2023-02-28T05:17:49;9.45;;;8.02;;
46563;SDS011;32291;52.010;4.446;2023-02-28T05:18:51;11.80;;;7.82;;
46563;SDS011;32291;52.010;4.446;2023-02-28T05:19:54;8.18;;;7.25;;
46563;SDS011;32291;52.010;4.446;2023-02-28T05:20:56;9.63;;;7.90;;
46563;SDS011;32291;52.010;4.446;2023-02-28T05:21:58;9.43;;;7.80;;
46563;SDS011;32291;52.010;4.446;2023-02-28T05:23:00;9.95;;;7.88;;
46563;SDS011;32291;52.010;4.446;2023-02-28T05:24:07;7.93;;;7.20;;
46563;SDS011;32291;52.010;4.446;2023-02-28T05:25:13;7.50;;;6.50;;
46563;SDS011;32291;52.010;4.446;2023-02-28T05:26:19;8.65;;;6.97;;
46563;SDS011;32291;52.010;4.446;2023-02-28T05:27:21;7.40;;;6.50;;
46563;SDS011;32291;52.010;4.446;2023-02-28T05:28:23;9.05;;;6.72;;
46563;SDS011;32291;52.010;4.446;2023-02-28T05:29:26;8.65;;;6.30;;
46563;SDS011;32291;52.010;4.446;2023-02-28T05:30:27;7.20;;;6.22;;
46563;SDS011;32291;52.010;4.446;2023-02-28T05:31:31;8.93;;;7.03;;
46563;SDS011;32291;52.010;4.446;2023-02-28T05:32:33;9.38;;;7.65;;
46563;SDS011;32291;52.010;4.446;2023-02-28T05:33:35;7.38;;;6.68;;
46563;SDS011;32291;52.010;4.446;2023-02-28T05:34:39;7.63;;;6.82;;
46563;SDS011;32291;52.010;4.446;2023-02-28T05:35:41;9.07;;;6.88;;
46563;SDS011;32291;52.010;4.446;2023-02-28T05:36:43;7.03;;;6.43;;
46563;SDS011;32291;52.010;4.446;2023-02-28T05:37:45;7.93;;;6.47;;
46563;SDS011;32291;52.010;4.446;2023-02-28T05:38:47;11.35;;;7.45;;
46563;SDS011;32291;52.010;4.446;2023-02-28T05:39:49;8.93;;;6.90;;
46563;SDS011;32291;52.010;4.446;2023-02-28T05:40:51;9.15;;;7.32;;
46563;SDS011;32291;52.010;4.446;2023-02-28T05:41:54;7.40;;;6.45;;
46563;SDS011;32291;52.010;4.446;2023-02-28T05:42:56;7.35;;;6.65;;
46563;SDS011;32291;52.010;4.446;2023-02-28T05:43:58;6.97;;;6.28;;
46563;SDS011;32291;52.010;4.446;2023-02-28T05:45:01;10.35;;;7.10;;
46563;SDS011;32291;52.010;4.446;2023-02-28T05:46:05;7.85;;;6.50;;
46563;SDS011;32291;52.010;4.446;2023-02-28T05:47:09;8.82;;;6.43;;
46563;SDS011;32291;52.010;4.446;2023-02-28T05:48:10;8.75;;;7.15;;
46563;SDS011;32291;52.010;4.446;2023-02-28T05:49:12;7.60;;;6.72;;
46563;SDS011;32291;52.010;4.446;2023-02-28T05:50:14;8.05;;;7.10;;
46563;SDS011;32291;52.010;4.446;2023-02-28T05:51:16;7.78;;;6.97;;
46563;SDS011;32291;52.010;4.446;2023-02-28T05:52:18;10.02;;;7.35;;
46563;SDS011;32291;52.010;4.446;2023-02-28T05:53:20;8.40;;;6.88;;
46563;SDS011;32291;52.010;4.446;2023-02-28T05:54:23;8.93;;;7.30;;
46563;SDS011;32291;52.010;4.446;2023-02-28T05:55:24;8.00;;;7.20;;
46563;SDS011;32291;52.010;4.446;2023-02-28T05:56:26;9.52;;;7.10;;
46563;SDS011;32291;52.010;4.446;2023-02-28T05:57:29;9.43;;;7.97;;
46563;SDS011;32291;52.010;4.446;2023-02-28T05:58:31;7.88;;;7.07;;
46563;SDS011;32291;52.010;4.446;2023-02-28T05:59:33;8.45;;;7.65;;
46563;SDS011;32291;52.010;4.446;2023-02-28T06:00:35;12.13;;;7.35;;
46563;SDS011;32291;52.010;4.446;2023-02-28T06:01:38;10.13;;;7.90;;
46563;SDS011;32291;52.010;4.446;2023-02-28T06:02:42;11.88;;;8.20;;
46563;SDS011;32291;52.010;4.446;2023-02-28T06:03:44;7.90;;;7.10;;
46563;SDS011;32291;52.010;4.446;2023-02-28T06:04:46;11.65;;;7.22;;
46563;SDS011;32291;52.010;4.446;2023-02-28T06:05:48;8.32;;;7.43;;
46563;SDS011;32291;52.010;4.446;2023-02-28T06:06:51;8.27;;;7.45;;
46563;SDS011;32291;52.010;4.446;2023-02-28T06:07:52;11.20;;;7.80;;
46563;SDS011;32291;52.010;4.446;2023-02-28T06:08:54;8.57;;;7.68;;
46563;SDS011;32291;52.010;4.446;2023-02-28T06:09:56;8.45;;;7.68;;
46563;SDS011;32291;52.010;4.446;2023-02-28T06:10:58;10.15;;;8.85;;
46563;SDS011;32291;52.010;4.446;2023-02-28T06:12:05;8.20;;;7.40;;
46563;SDS011;32291;52.010;4.446;2023-02-28T06:13:08;8.95;;;7.85;;
46563;SDS011;32291;52.010;4.446;2023-02-28T06:14:12;10.02;;;7.43;;
46563;SDS011;32291;52.010;4.446;2023-02-28T06:15:17;7.47;;;6.78;;
46563;SDS011;32291;52.010;4.446;2023-02-28T06:16:19;9.10;;;7.38;;
46563;SDS011;32291;52.010;4.446;2023-02-28T06:17:21;8.40;;;7.47;;
46563;SDS011;32291;52.010;4.446;2023-02-28T06:18:23;9.13;;;7.95;;
46563;SDS011;32291;52.010;4.446;2023-02-28T06:19:25;8.90;;;7.78;;
46563;SDS011;32291;52.010;4.446;2023-02-28T06:20:28;9.05;;;7.55;;
46563;SDS011;32291;52.010;4.446;2023-02-28T06:21:30;10.15;;;7.57;;
46563;SDS011;32291;52.010;4.446;2023-02-28T06:22:32;8.52;;;7.63;;
46563;SDS011;32291;52.010;4.446;2023-02-28T06:23:33;9.48;;;7.90;;
46563;SDS011;32291;52.010;4.446;2023-02-28T06:24:35;8.52;;;7.57;;
46563;SDS011;32291;52.010;4.446;2023-02-28T06:25:37;8.65;;;7.50;;
46563;SDS011;32291;52.010;4.446;2023-02-28T06:26:38;10.77;;;8.05;;
46563;SDS011;32291;52.010;4.446;2023-02-28T06:27:41;8.40;;;7.50;;
46563;SDS011;32291;52.010;4.446;2023-02-28T06:28:43;10.65;;;7.72;;
46563;SDS011;32291;52.010;4.446;2023-02-28T06:29:45;11.02;;;7.82;;
46563;SDS011;32291;52.010;4.446;2023-02-28T06:30:47;8.23;;;7.32;;
46563;SDS011;32291;52.010;4.446;2023-02-28T06:31:49;7.80;;;7.07;;
46563;SDS011;32291;52.010;4.446;2023-02-28T06:32:51;10.13;;;7.03;;
46563;SDS011;32291;52.010;4.446;2023-02-28T06:33:53;7.55;;;6.75;;
46563;SDS011;32291;52.010;4.446;2023-02-28T06:34:55;9.13;;;6.82;;
46563;SDS011;32291;52.010;4.446;2023-02-28T06:35:58;9.32;;;6.70;;
46563;SDS011;32291;52.010;4.446;2023-02-28T06:37:00;6.93;;;5.60;;
46563;SDS011;32291;52.010;4.446;2023-02-28T06:38:03;7.65;;;6.40;;
46563;SDS011;32291;52.010;4.446;2023-02-28T06:39:05;8.45;;;6.60;;
46563;SDS011;32291;52.010;4.446;2023-02-28T06:40:06;8.27;;;6.18;;
46563;SDS011;32291;52.010;4.446;2023-02-28T06:41:10;6.97;;;6.28;;
46563;SDS011;32291;52.010;4.446;2023-02-28T06:42:12;10.32;;;6.15;;
46563;SDS011;32291;52.010;4.446;2023-02-28T06:43:13;13.68;;;6.30;;
46563;SDS011;32291;52.010;4.446;2023-02-28T06:44:16;7.97;;;6.22;;
46563;SDS011;32291;52.010;4.446;2023-02-28T06:45:19;7.35;;;6.43;;
46563;SDS011;32291;52.010;4.446;2023-02-28T06:46:21;8.02;;;6.32;;
46563;SDS011;32291;52.010;4.446;2023-02-28T06:47:23;8.43;;;5.82;;
46563;SDS011;32291;52.010;4.446;2023-02-28T06:48:25;6.95;;;5.80;;
46563;SDS011;32291;52.010;4.446;2023-02-28T06:49:28;6.30;;;5.70;;
46563;SDS011;32291;52.010;4.446;2023-02-28T06:50:31;5.80;;;5.25;;
46563;SDS011;32291;52.010;4.446;2023-02-28T06:51:33;6.45;;;5.05;;
46563;SDS011;32291;52.010;4.446;2023-02-28T06:52:36;6.68;;;4.55;;
46563;SDS011;32291;52.010;4.446;2023-02-28T06:53:38;5.30;;;4.80;;
46563;SDS011;32291;52.010;4.446;2023-02-28T06:54:40;5.43;;;4.63;;
46563;SDS011;32291;52.010;4.446;2023-02-28T06:55:42;6.03;;;4.60;;
46563;SDS011;32291;52.010;4.446;2023-02-28T06:56:44;4.22;;;3.85;;
46563;SDS011;32291;52.010;4.446;2023-02-28T06:57:47;4.53;;;4.13;;
46563;SDS011;32291;52.010;4.446;2023-02-28T06:58:51;4.30;;;3.72;;
46563;SDS011;32291;52.010;4.446;2023-02-28T06:59:57;4.80;;;4.28;;
46563;SDS011;32291;52.010;4.446;2023-02-28T07:01:07;7.43;;;4.78;;
46563;SDS011;32291;52.010;4.446;2023-02-28T07:02:09;4.78;;;4.22;;
46563;SDS011;32291;52.010;4.446;2023-02-28T07:03:11;4.15;;;3.70;;
46563;SDS011;32291;52.010;4.446;2023-02-28T07:04:15;5.82;;;4.65;;
46563;SDS011;32291;52.010;4.446;2023-02-28T07:05:16;4.45;;;3.50;;
46563;SDS011;32291;52.010;4.446;2023-02-28T07:06:22;4.97;;;3.97;;
46563;SDS011;32291;52.010;4.446;2023-02-28T07:07:24;4.78;;;4.28;;